sensor_id;sensor_type;location;lat;lon;timestamp;pressure;altitude;pressure_sealevel;temperature;humidity
29461;BME280;16428;47.836;35.106;2023-02-18T00:00:35;101473.16;;;1.05;100.00
29461;BME280;16428;47.836;35.106;2023-02-18T00:03:14;101480.28;;;0.90;100.00
29461;BME280;16428;47.836;35.106;2023-02-18T00:05:46;101467.78;;;0.92;100.00
29461;BME280;16428;47.836;35.106;2023-02-18T00:08:20;101464.00;;;0.96;100.00
29461;BME280;16428;47.836;35.106;2023-02-18T00:10:50;101462.47;;;0.92;100.00
29461;BME280;16428;47.836;35.106;2023-02-18T00:13:23;101465.41;;;1.02;100.00
29461;BME280;16428;47.836;35.106;2023-02-18T00:16:02;101469.69;;;0.90;100.00
29461;BME280;16428;47.836;35.106;2023-02-18T00:18:35;101468.84;;;0.90;100.00
29461;BME280;16428;47.836;35.106;2023-02-18T00:21:06;101454.78;;;0.89;100.00
29461;BME280;16428;47.836;35.106;2023-02-18T00:23:39;101454.47;;;0.94;100.00
29461;BME280;16428;47.836;35.106;2023-02-18T00:26:13;101455.59;;;1.04;100.00
29461;BME280;16428;47.836;35.106;2023-02-18T00:29:00;101451.97;;;1.19;100.00
29461;BME280;16428;47.836;35.106;2023-02-18T00:31:34;101447.69;;;0.90;100.00
29461;BME280;16428;47.836;35.106;2023-02-18T00:34:04;101447.28;;;0.96;100.00
29461;BME280;16428;47.836;35.106;2023-02-18T00:36:34;101447.88;;;0.87;100.00
29461;BME280;16428;47.836;35.106;2023-02-18T00:42:08;101434.47;;;0.61;100.00
29461;BME280;16428;47.836;35.106;2023-02-18T00:44:41;101428.41;;;0.88;100.00
29461;BME280;16428;47.836;35.106;2023-02-18T00:47:10;101416.31;;;0.84;100.00
29461;BME280;16428;47.836;35.106;2023-02-18T00:49:40;101404.69;;;0.86;100.00
29461;BME280;16428;47.836;35.106;2023-02-18T00:52:14;101395.28;;;0.68;100.00
29461;BME280;16428;47.836;35.106;2023-02-18T00:58:01;101387.16;;;0.71;100.00
29461;BME280;16428;47.836;35.106;2023-02-18T01:00:45;101380.09;;;0.72;100.00
29461;BME280;16428;47.836;35.106;2023-02-18T01:03:17;101376.69;;;0.69;100.00
29461;BME280;16428;47.836;35.106;2023-02-18T01:05:51;101375.66;;;0.72;100.00
29461;BME280;16428;47.836;35.106;2023-02-18T01:08:21;101379.09;;;0.87;100.00
29461;BME280;16428;47.836;35.106;2023-02-18T01:11:01;101377.81;;;0.65;100.00
29461;BME280;16428;47.836;35.106;2023-02-18T01:13:31;101374.41;;;0.63;100.00
29461;BME280;16428;47.836;35.106;2023-02-18T01:16:11;101374.50;;;0.62;100.00
29461;BME280;16428;47.836;35.106;2023-02-18T01:18:42;101372.63;;;0.64;100.00
29461;BME280;16428;47.836;35.106;2023-02-18T01:21:14;101381.66;;;0.88;100.00
29461;BME280;16428;47.836;35.106;2023-02-18T01:23:43;101366.63;;;0.89;100.00
29461;BME280;16428;47.836;35.106;2023-02-18T01:26:12;101372.97;;;0.86;100.00
29461;BME280;16428;47.836;35.106;2023-02-18T01:28:47;101373.22;;;0.96;100.00
29461;BME280;16428;47.836;35.106;2023-02-18T01:31:23;101364.59;;;0.65;100.00
29461;BME280;16428;47.836;35.106;2023-02-18T01:33:54;101359.72;;;0.59;100.00
29461;BME280;16428;47.836;35.106;2023-02-18T01:36:24;101356.44;;;0.83;100.00
29461;BME280;16428;47.836;35.106;2023-02-18T01:38:59;101347.56;;;0.84;100.00
29461;BME280;16428;47.836;35.106;2023-02-18T01:41:49;101348.06;;;1.03;100.00
29461;BME280;16428;47.836;35.106;2023-02-18T01:44:47;101346.06;;;0.80;100.00
29461;BME280;16428;47.836;35.106;2023-02-18T01:47:19;101353.41;;;0.89;100.00
29461;BME280;16428;47.836;35.106;2023-02-18T01:50:12;101344.00;;;0.70;100.00
29461;BME280;16428;47.836;35.106;2023-02-18T01:52:54;101334.75;;;0.63;100.00
29461;BME280;16428;47.836;35.106;2023-02-18T01:55:48;101323.19;;;0.79;100.00
29461;BME280;16428;47.836;35.106;2023-02-18T01:58:37;101332.06;;;0.78;100.00
29461;BME280;16428;47.836;35.106;2023-02-18T02:01:20;101331.44;;;0.74;100.00
29461;BME280;16428;47.836;35.106;2023-02-18T02:04:17;101313.88;;;0.73;100.00
29461;BME280;16428;47.836;35.106;2023-02-18T02:07:16;101326.97;;;0.89;100.00
29461;BME280;16428;47.836;35.106;2023-02-18T02:10:45;101326.44;;;0.96;100.00
29461;BME280;16428;47.836;35.106;2023-02-18T02:13:50;101328.75;;;0.88;100.00
29461;BME280;16428;47.836;35.106;2023-02-18T02:27:23;101324.56;;;0.98;100.00
29461;BME280;16428;47.836;35.106;2023-02-18T02:30:42;101325.06;;;0.91;100.00
29461;BME280;16428;47.836;35.106;2023-02-18T02:36:23;101309.72;;;0.96;100.00
29461;BME280;16428;47.836;35.106;2023-02-18T02:39:33;101299.75;;;0.87;100.00
29461;BME280;16428;47.836;35.106;2023-02-18T02:49:57;101310.59;;;1.09;100.00
29461;BME280;16428;47.836;35.106;2023-02-18T02:53:01;101311.56;;;1.08;100.00
29461;BME280;16428;47.836;35.106;2023-02-18T02:56:00;101301.47;;;0.88;100.00
29461;BME280;16428;47.836;35.106;2023-02-18T02:58:31;101296.84;;;1.04;100.00
29461;BME280;16428;47.836;35.106;2023-02-18T03:11:01;101268.78;;;0.89;100.00
29461;BME280;16428;47.836;35.106;2023-02-18T03:16:57;101266.56;;;0.95;100.00
29461;BME280;16428;47.836;35.106;2023-02-18T03:19:46;101266.25;;;1.00;100.00
29461;BME280;16428;47.836;35.106;2023-02-18T03:22:40;101261.69;;;0.89;100.00
29461;BME280;16428;47.836;35.106;2023-02-18T03:25:26;101270.25;;;0.93;100.00
29461;BME280;16428;47.836;35.106;2023-02-18T03:28:10;101272.63;;;1.10;100.00
29461;BME280;16428;47.836;35.106;2023-02-18T03:30:54;101265.88;;;1.19;100.00
29461;BME280;16428;47.836;35.106;2023-02-18T03:33:30;101258.13;;;1.03;100.00
29461;BME280;16428;47.836;35.106;2023-02-18T03:36:02;101259.81;;;1.04;100.00
29461;BME280;16428;47.836;35.106;2023-02-18T03:41:26;101256.81;;;0.96;100.00
29461;BME280;16428;47.836;35.106;2023-02-18T03:44:23;101262.97;;;1.09;100.00
29461;BME280;16428;47.836;35.106;2023-02-18T03:46:52;101259.66;;;1.32;100.00
29461;BME280;16428;47.836;35.106;2023-02-18T03:49:22;101248.75;;;1.37;100.00
29461;BME280;16428;47.836;35.106;2023-02-18T03:51:53;101237.31;;;1.36;100.00
29461;BME280;16428;47.836;35.106;2023-02-18T03:54:26;101230.81;;;1.15;100.00
29461;BME280;16428;47.836;35.106;2023-02-18T03:56:58;101234.50;;;1.00;100.00
29461;BME280;16428;47.836;35.106;2023-02-18T03:59:28;101221.50;;;1.10;100.00
29461;BME280;16428;47.836;35.106;2023-02-18T04:01:58;101215.91;;;1.14;100.00
29461;BME280;16428;47.836;35.106;2023-02-18T04:04:29;101221.50;;;1.22;100.00
29461;BME280;16428;47.836;35.106;2023-02-18T04:06:58;101231.03;;;1.25;100.00
29461;BME280;16428;47.836;35.106;2023-02-18T04:09:32;101218.34;;;1.17;100.00
29461;BME280;16428;47.836;35.106;2023-02-18T04:12:02;101219.41;;;1.27;100.00
29461;BME280;16428;47.836;35.106;2023-02-18T04:14:34;101211.09;;;0.94;100.00
29461;BME280;16428;47.836;35.106;2023-02-18T04:17:02;101210.50;;;1.16;100.00
29461;BME280;16428;47.836;35.106;2023-02-18T04:19:36;101203.50;;;1.02;100.00
29461;BME280;16428;47.836;35.106;2023-02-18T04:22:15;101201.06;;;1.12;100.00
29461;BME280;16428;47.836;35.106;2023-02-18T04:25:05;101178.13;;;1.12;100.00
29461;BME280;16428;47.836;35.106;2023-02-18T04:27:34;101184.91;;;1.03;100.00
29461;BME280;16428;47.836;35.106;2023-02-18T04:30:06;101172.16;;;0.96;100.00
29461;BME280;16428;47.836;35.106;2023-02-18T04:32:36;101168.81;;;1.19;100.00
29461;BME280;16428;47.836;35.106;2023-02-18T04:35:06;101154.59;;;1.08;100.00
29461;BME280;16428;47.836;35.106;2023-02-18T04:37:52;101139.19;;;1.01;100.00
29461;BME280;16428;47.836;35.106;2023-02-18T04:40:24;101139.59;;;1.08;100.00
29461;BME280;16428;47.836;35.106;2023-02-18T04:43:01;101142.56;;;1.16;100.00
29461;BME280;16428;47.836;35.106;2023-02-18T04:45:31;101141.41;;;1.20;100.00
29461;BME280;16428;47.836;35.106;2023-02-18T04:48:00;101148.25;;;1.23;100.00
29461;BME280;16428;47.836;35.106;2023-02-18T04:50:29;101142.47;;;1.05;100.00
29461;BME280;16428;47.836;35.106;2023-02-18T04:53:02;101136.22;;;1.06;100.00
29461;BME280;16428;47.836;35.106;2023-02-18T04:55:32;101134.41;;;1.19;100.00
29461;BME280;16428;47.836;35.106;2023-02-18T05:00:46;101124.13;;;1.15;100.00
29461;BME280;16428;47.836;35.106;2023-02-18T05:03:16;101122.03;;;1.32;100.00
29461;BME280;16428;47.836;35.106;2023-02-18T05:05:47;101124.56;;;1.21;100.00
29461;BME280;16428;47.836;35.106;2023-02-18T05:08:18;101124.44;;;1.10;100.00
29461;BME280;16428;47.836;35.106;2023-02-18T05:10:49;101144.06;;;1.20;100.00
29461;BME280;16428;47.836;35.106;2023-02-18T05:13:27;101139.06;;;1.16;100.00
29461;BME280;16428;47.836;35.106;2023-02-18T05:16:02;101138.53;;;1.23;100.00
29461;BME280;16428;47.836;35.106;2023-02-18T05:18:35;101128.38;;;1.30;100.00
29461;BME280;16428;47.836;35.106;2023-02-18T05:21:07;101120.00;;;1.23;100.00
29461;BME280;16428;47.836;35.106;2023-02-18T05:23:39;101130.72;;;1.22;100.00
29461;BME280;16428;47.836;35.106;2023-02-18T05:26:10;101124.78;;;1.18;100.00
29461;BME280;16428;47.836;35.106;2023-02-18T05:28:41;101113.16;;;1.21;100.00
29461;BME280;16428;47.836;35.106;2023-02-18T05:31:11;101111.44;;;1.20;100.00
29461;BME280;16428;47.836;35.106;2023-02-18T05:33:43;101124.34;;;1.24;100.00
29461;BME280;16428;47.836;35.106;2023-02-18T05:36:14;101115.25;;;1.28;100.00
29461;BME280;16428;47.836;35.106;2023-02-18T05:38:45;101112.91;;;1.36;100.00
29461;BME280;16428;47.836;35.106;2023-02-18T05:41:23;101104.66;;;1.28;100.00
29461;BME280;16428;47.836;35.106;2023-02-18T05:43:56;101097.13;;;1.35;100.00
29461;BME280;16428;47.836;35.106;2023-02-18T05:46:48;101093.66;;;1.22;100.00
29461;BME280;16428;47.836;35.106;2023-02-18T05:49:17;101086.03;;;1.30;100.00
29461;BME280;16428;47.836;35.106;2023-02-18T05:52:10;101087.59;;;1.32;100.00
29461;BME280;16428;47.836;35.106;2023-02-18T05:54:47;101080.31;;;1.23;100.00
29461;BME280;16428;47.836;35.106;2023-02-18T05:57:37;101066.78;;;1.15;100.00
29461;BME280;16428;47.836;35.106;2023-02-18T06:01:00;101071.53;;;1.35;100.00
29461;BME280;16428;47.836;35.106;2023-02-18T06:03:57;101055.78;;;1.21;100.00
29461;BME280;16428;47.836;35.106;2023-02-18T06:06:57;101058.72;;;1.29;100.00
29461;BME280;16428;47.836;35.106;2023-02-18T06:09:38;101061.88;;;1.34;100.00
29461;BME280;16428;47.836;35.106;2023-02-18T06:12:34;101065.66;;;1.43;100.00
29461;BME280;16428;47.836;35.106;2023-02-18T06:15:27;101065.66;;;1.43;100.00
29461;BME280;16428;47.836;35.106;2023-02-18T06:18:07;101065.22;;;1.49;100.00
29461;BME280;16428;47.836;35.106;2023-02-18T06:21:11;101056.47;;;1.23;100.00
29461;BME280;16428;47.836;35.106;2023-02-18T06:24:07;101059.31;;;1.46;100.00
29461;BME280;16428;47.836;35.106;2023-02-18T06:26:52;101054.44;;;1.39;100.00
29461;BME280;16428;47.836;35.106;2023-02-18T06:29:33;101051.72;;;1.28;100.00
29461;BME280;16428;47.836;35.106;2023-02-18T06:32:25;101042.63;;;1.32;100.00
29461;BME280;16428;47.836;35.106;2023-02-18T06:40:27;101029.00;;;1.50;100.00
29461;BME280;16428;47.836;35.106;2023-02-18T06:43:26;101019.06;;;1.40;100.00
29461;BME280;16428;47.836;35.106;2023-02-18T06:46:16;101016.53;;;1.52;100.00
29461;BME280;16428;47.836;35.106;2023-02-18T06:48:58;101010.13;;;1.54;100.00
29461;BME280;16428;47.836;35.106;2023-02-18T06:51:55;100999.00;;;1.25;100.00
29461;BME280;16428;47.836;35.106;2023-02-18T06:54:54;100991.81;;;1.27;100.00
29461;BME280;16428;47.836;35.106;2023-02-18T06:57:30;100978.63;;;1.38;100.00
29461;BME280;16428;47.836;35.106;2023-02-18T07:00:17;100967.56;;;1.33;100.00
29461;BME280;16428;47.836;35.106;2023-02-18T07:03:02;100960.09;;;1.38;100.00
29461;BME280;16428;47.836;35.106;2023-02-18T07:05:40;100954.09;;;1.36;100.00
29461;BME280;16428;47.836;35.106;2023-02-18T07:08:38;100946.44;;;1.45;100.00
29461;BME280;16428;47.836;35.106;2023-02-18T07:11:35;100950.56;;;1.49;100.00
29461;BME280;16428;47.836;35.106;2023-02-18T07:14:31;100935.00;;;1.44;100.00
29461;BME280;16428;47.836;35.106;2023-02-18T07:17:16;100931.09;;;1.61;100.00
29461;BME280;16428;47.836;35.106;2023-02-18T07:20:13;100923.97;;;1.50;100.00
29461;BME280;16428;47.836;35.106;2023-02-18T07:22:48;100917.97;;;1.59;100.00
29461;BME280;16428;47.836;35.106;2023-02-18T07:25:16;100910.53;;;1.64;100.00
29461;BME280;16428;47.836;35.106;2023-02-18T07:27:53;100910.84;;;1.49;100.00
29461;BME280;16428;47.836;35.106;2023-02-18T07:30:40;100920.75;;;1.58;100.00
29461;BME280;16428;47.836;35.106;2023-02-18T07:33:17;100917.03;;;1.60;100.00
29461;BME280;16428;47.836;35.106;2023-02-18T07:36:05;100916.91;;;1.62;100.00
29461;BME280;16428;47.836;35.106;2023-02-18T07:38:37;100915.00;;;1.64;100.00
29461;BME280;16428;47.836;35.106;2023-02-18T07:41:20;100908.94;;;1.51;100.00
29461;BME280;16428;47.836;35.106;2023-02-18T07:43:56;100909.66;;;1.53;100.00
29461;BME280;16428;47.836;35.106;2023-02-18T07:46:38;100899.56;;;1.58;100.00
29461;BME280;16428;47.836;35.106;2023-02-18T07:49:07;100905.47;;;1.61;100.00
29461;BME280;16428;47.836;35.106;2023-02-18T07:51:39;100892.34;;;1.60;100.00
29461;BME280;16428;47.836;35.106;2023-02-18T07:54:25;100874.94;;;1.33;100.00
29461;BME280;16428;47.836;35.106;2023-02-18T07:57:30;100867.66;;;1.48;100.00
29461;BME280;16428;47.836;35.106;2023-02-18T08:22:28;100817.50;;;1.69;100.00
29461;BME280;16428;47.836;35.106;2023-02-18T08:45:26;100699.06;;;1.93;100.00
29461;BME280;16428;47.836;35.106;2023-02-18T08:58:15;100664.84;;;2.01;100.00
29461;BME280;16428;47.836;35.106;2023-02-18T09:01:00;100669.66;;;2.07;100.00
29461;BME280;16428;47.836;35.106;2023-02-18T09:03:57;100658.81;;;2.10;100.00
29461;BME280;16428;47.836;35.106;2023-02-18T09:06:44;100654.59;;;2.08;100.00
29461;BME280;16428;47.836;35.106;2023-02-18T09:10:00;100655.53;;;2.18;100.00
29461;BME280;16428;47.836;35.106;2023-02-18T09:13:08;100645.00;;;1.96;100.00
29461;BME280;16428;47.836;35.106;2023-02-18T09:16:03;100633.53;;;2.06;100.00
29461;BME280;16428;47.836;35.106;2023-02-18T09:18:35;100633.28;;;2.09;100.00
29461;BME280;16428;47.836;35.106;2023-02-18T09:21:15;100616.06;;;2.04;100.00
29461;BME280;16428;47.836;35.106;2023-02-18T09:23:45;100627.75;;;2.01;100.00
29461;BME280;16428;47.836;35.106;2023-02-18T09:26:23;100617.28;;;2.11;100.00
29461;BME280;16428;47.836;35.106;2023-02-18T09:28:57;100611.63;;;2.04;100.00
29461;BME280;16428;47.836;35.106;2023-02-18T09:31:29;100597.13;;;2.20;100.00
29461;BME280;16428;47.836;35.106;2023-02-18T09:34:00;100598.31;;;2.16;100.00
29461;BME280;16428;47.836;35.106;2023-02-18T09:36:33;100595.84;;;2.35;100.00
29461;BME280;16428;47.836;35.106;2023-02-18T09:39:20;100577.88;;;2.38;100.00
29461;BME280;16428;47.836;35.106;2023-02-18T09:42:22;100574.53;;;2.36;100.00
29461;BME280;16428;47.836;35.106;2023-02-18T09:44:57;100571.25;;;2.44;100.00
29461;BME280;16428;47.836;35.106;2023-02-18T09:47:41;100563.06;;;2.36;100.00
29461;BME280;16428;47.836;35.106;2023-02-18T09:50:32;100563.41;;;2.42;100.00
29461;BME280;16428;47.836;35.106;2023-02-18T09:53:17;100549.09;;;2.34;100.00
29461;BME280;16428;47.836;35.106;2023-02-18T09:56:05;100535.47;;;2.38;100.00
29461;BME280;16428;47.836;35.106;2023-02-18T09:59:14;100531.75;;;2.30;100.00
29461;BME280;16428;47.836;35.106;2023-02-18T10:02:03;100519.88;;;2.45;100.00
29461;BME280;16428;47.836;35.106;2023-02-18T10:08:22;100490.13;;;2.62;100.00
29461;BME280;16428;47.836;35.106;2023-02-18T10:11:13;100473.94;;;2.65;100.00
29461;BME280;16428;47.836;35.106;2023-02-18T10:14:11;100479.00;;;2.68;100.00
29461;BME280;16428;47.836;35.106;2023-02-18T10:17:32;100467.88;;;2.74;100.00
29461;BME280;16428;47.836;35.106;2023-02-18T10:20:31;100461.03;;;2.81;100.00
29461;BME280;16428;47.836;35.106;2023-02-18T10:23:35;100442.88;;;2.77;100.00
29461;BME280;16428;47.836;35.106;2023-02-18T10:26:41;100440.00;;;2.90;100.00
29461;BME280;16428;47.836;35.106;2023-02-18T10:29:38;100434.16;;;2.96;100.00
29461;BME280;16428;47.836;35.106;2023-02-18T10:33:31;100416.19;;;3.18;100.00
29461;BME280;16428;47.836;35.106;2023-02-18T10:36:55;100415.50;;;3.16;100.00
29461;BME280;16428;47.836;35.106;2023-02-18T10:50:37;100376.97;;;3.32;100.00
29461;BME280;16428;47.836;35.106;2023-02-18T10:53:40;100363.25;;;3.36;100.00
29461;BME280;16428;47.836;35.106;2023-02-18T10:59:39;100349.84;;;3.47;100.00
29461;BME280;16428;47.836;35.106;2023-02-18T11:02:38;100355.16;;;3.47;100.00
29461;BME280;16428;47.836;35.106;2023-02-18T11:05:39;100344.53;;;3.47;100.00
29461;BME280;16428;47.836;35.106;2023-02-18T11:08:47;100331.13;;;3.49;100.00
29461;BME280;16428;47.836;35.106;2023-02-18T11:12:02;100324.38;;;3.74;100.00
29461;BME280;16428;47.836;35.106;2023-02-18T11:15:18;100325.53;;;3.62;100.00
29461;BME280;16428;47.836;35.106;2023-02-18T11:18:56;100319.75;;;3.76;100.00
29461;BME280;16428;47.836;35.106;2023-02-18T11:22:19;100318.50;;;3.80;100.00
29461;BME280;16428;47.836;35.106;2023-02-18T11:25:31;100302.84;;;3.77;100.00
29461;BME280;16428;47.836;35.106;2023-02-18T11:31:54;100297.22;;;3.89;100.00
29461;BME280;16428;47.836;35.106;2023-02-18T11:34:59;100293.69;;;3.99;100.00
29461;BME280;16428;47.836;35.106;2023-02-18T11:38:02;100290.16;;;4.08;100.00
29461;BME280;16428;47.836;35.106;2023-02-18T11:56:33;100269.06;;;4.34;100.00
29461;BME280;16428;47.836;35.106;2023-02-18T11:59:10;100260.28;;;4.51;100.00
29461;BME280;16428;47.836;35.106;2023-02-18T12:01:50;100249.06;;;4.57;100.00
29461;BME280;16428;47.836;35.106;2023-02-18T12:04:32;100253.22;;;4.42;100.00
29461;BME280;16428;47.836;35.106;2023-02-18T12:10:38;100246.66;;;4.36;100.00
29461;BME280;16428;47.836;35.106;2023-02-18T12:13:47;100246.31;;;4.49;100.00
29461;BME280;16428;47.836;35.106;2023-02-18T12:16:32;100245.44;;;4.58;100.00
29461;BME280;16428;47.836;35.106;2023-02-18T12:32:17;100209.09;;;4.84;100.00
29461;BME280;16428;47.836;35.106;2023-02-18T12:35:56;100209.41;;;4.81;100.00
29461;BME280;16428;47.836;35.106;2023-02-18T12:39:24;100213.03;;;4.80;100.00
29461;BME280;16428;47.836;35.106;2023-02-18T12:42:56;100208.78;;;4.87;100.00
29461;BME280;16428;47.836;35.106;2023-02-18T13:13:23;100210.91;;;5.45;100.00
29461;BME280;16428;47.836;35.106;2023-02-18T13:16:25;100206.16;;;5.31;100.00
29461;BME280;16428;47.836;35.106;2023-02-18T13:19:02;100219.44;;;5.49;100.00
29461;BME280;16428;47.836;35.106;2023-02-18T13:21:42;100216.59;;;5.50;100.00
29461;BME280;16428;47.836;35.106;2023-02-18T13:24:37;100218.25;;;5.51;100.00
29461;BME280;16428;47.836;35.106;2023-02-18T13:36:27;100220.16;;;5.59;100.00
29461;BME280;16428;47.836;35.106;2023-02-18T13:39:08;100216.34;;;5.61;100.00
29461;BME280;16428;47.836;35.106;2023-02-18T13:42:18;100224.34;;;5.61;100.00
29461;BME280;16428;47.836;35.106;2023-02-18T13:48:02;100219.94;;;5.78;100.00
29461;BME280;16428;47.836;35.106;2023-02-18T13:51:08;100218.28;;;5.77;100.00
29461;BME280;16428;47.836;35.106;2023-02-18T13:54:53;100219.69;;;5.89;100.00
29461;BME280;16428;47.836;35.106;2023-02-18T13:57:24;100210.88;;;5.89;100.00
29461;BME280;16428;47.836;35.106;2023-02-18T14:00:05;100215.56;;;5.95;100.00
29461;BME280;16428;47.836;35.106;2023-02-18T14:03:18;100210.16;;;6.21;100.00
29461;BME280;16428;47.836;35.106;2023-02-18T14:05:54;100211.69;;;6.23;100.00
29461;BME280;16428;47.836;35.106;2023-02-18T14:08:34;100210.72;;;6.32;100.00
29461;BME280;16428;47.836;35.106;2023-02-18T14:11:57;100216.56;;;6.44;100.00
29461;BME280;16428;47.836;35.106;2023-02-18T14:24:05;100229.16;;;6.68;100.00
29461;BME280;16428;47.836;35.106;2023-02-18T14:27:22;100240.66;;;6.68;100.00
29461;BME280;16428;47.836;35.106;2023-02-18T14:30:25;100236.81;;;6.63;100.00
29461;BME280;16428;47.836;35.106;2023-02-18T14:33:19;100238.16;;;6.67;100.00
29461;BME280;16428;47.836;35.106;2023-02-18T14:36:08;100229.06;;;6.44;100.00
29461;BME280;16428;47.836;35.106;2023-02-18T14:39:21;100212.84;;;6.29;100.00
29461;BME280;16428;47.836;35.106;2023-02-18T14:51:59;100218.84;;;6.23;100.00
29461;BME280;16428;47.836;35.106;2023-02-18T14:54:31;100208.28;;;6.13;100.00
29461;BME280;16428;47.836;35.106;2023-02-18T14:57:08;100215.03;;;6.25;100.00
29461;BME280;16428;47.836;35.106;2023-02-18T14:59:56;100211.06;;;6.38;100.00
29461;BME280;16428;47.836;35.106;2023-02-18T15:02:35;100214.56;;;6.46;100.00
29461;BME280;16428;47.836;35.106;2023-02-18T15:05:26;100221.06;;;6.44;100.00
29461;BME280;16428;47.836;35.106;2023-02-18T15:08:26;100221.75;;;6.46;100.00
29461;BME280;16428;47.836;35.106;2023-02-18T15:11:12;100218.09;;;6.47;100.00
29461;BME280;16428;47.836;35.106;2023-02-18T15:14:25;100217.09;;;6.48;100.00
29461;BME280;16428;47.836;35.106;2023-02-18T15:17:26;100217.59;;;6.59;100.00
29461;BME280;16428;47.836;35.106;2023-02-18T15:20:14;100218.09;;;6.47;100.00
29461;BME280;16428;47.836;35.106;2023-02-18T15:22:49;100225.41;;;6.37;100.00
29461;BME280;16428;47.836;35.106;2023-02-18T15:25:25;100228.69;;;6.30;100.00
29461;BME280;16428;47.836;35.106;2023-02-18T15:27:56;100228.75;;;6.39;100.00
29461;BME280;16428;47.836;35.106;2023-02-18T15:30:30;100230.06;;;6.43;100.00
29461;BME280;16428;47.836;35.106;2023-02-18T15:33:00;100229.41;;;6.41;100.00
29461;BME280;16428;47.836;35.106;2023-02-18T15:36:05;100230.06;;;6.34;100.00
29461;BME280;16428;47.836;35.106;2023-02-18T15:39:03;100231.25;;;6.40;100.00
29461;BME280;16428;47.836;35.106;2023-02-18T15:41:37;100233.72;;;6.42;100.00
29461;BME280;16428;47.836;35.106;2023-02-18T15:45:23;100246.44;;;6.40;100.00
29461;BME280;16428;47.836;35.106;2023-02-18T15:48:21;100255.38;;;6.30;100.00
29461;BME280;16428;47.836;35.106;2023-02-18T15:55:50;100260.91;;;6.37;100.00
29461;BME280;16428;47.836;35.106;2023-02-18T15:58:49;100266.69;;;6.24;100.00
29461;BME280;16428;47.836;35.106;2023-02-18T16:01:34;100269.31;;;6.16;100.00
29461;BME280;16428;47.836;35.106;2023-02-18T16:04:39;100272.81;;;6.17;100.00
29461;BME280;16428;47.836;35.106;2023-02-18T16:08:05;100279.88;;;6.26;100.00
29461;BME280;16428;47.836;35.106;2023-02-18T16:11:10;100282.53;;;6.26;100.00
29461;BME280;16428;47.836;35.106;2023-02-18T16:13:55;100282.03;;;6.22;100.00
29461;BME280;16428;47.836;35.106;2023-02-18T16:16:42;100293.44;;;6.07;100.00
29461;BME280;16428;47.836;35.106;2023-02-18T16:19:24;100292.38;;;6.25;100.00
29461;BME280;16428;47.836;35.106;2023-02-18T16:24:41;100300.88;;;6.29;100.00
29461;BME280;16428;47.836;35.106;2023-02-18T16:27:26;100302.53;;;6.22;100.00
29461;BME280;16428;47.836;35.106;2023-02-18T16:30:36;100313.34;;;6.20;100.00
29461;BME280;16428;47.836;35.106;2023-02-18T16:33:28;100321.03;;;6.23;100.00
29461;BME280;16428;47.836;35.106;2023-02-18T16:35:58;100314.41;;;6.02;100.00
29461;BME280;16428;47.836;35.106;2023-02-18T16:38:58;100316.53;;;5.98;100.00
29461;BME280;16428;47.836;35.106;2023-02-18T16:44:38;100321.56;;;6.01;100.00
29461;BME280;16428;47.836;35.106;2023-02-18T16:47:17;100319.84;;;5.92;100.00
29461;BME280;16428;47.836;35.106;2023-02-18T16:49:50;100321.88;;;5.98;100.00
29461;BME280;16428;47.836;35.106;2023-02-18T16:52:22;100332.34;;;5.91;100.00
29461;BME280;16428;47.836;35.106;2023-02-18T16:54:56;100334.75;;;5.85;100.00
29461;BME280;16428;47.836;35.106;2023-02-18T16:57:25;100336.00;;;5.90;100.00
29461;BME280;16428;47.836;35.106;2023-02-18T17:00:18;100322.50;;;5.92;100.00
29461;BME280;16428;47.836;35.106;2023-02-18T17:03:12;100332.75;;;5.87;100.00
29461;BME280;16428;47.836;35.106;2023-02-18T17:05:43;100326.16;;;5.91;100.00
29461;BME280;16428;47.836;35.106;2023-02-18T17:08:22;100342.16;;;5.91;100.00
29461;BME280;16428;47.836;35.106;2023-02-18T17:10:55;100328.97;;;5.89;100.00
29461;BME280;16428;47.836;35.106;2023-02-18T17:13:34;100337.22;;;5.78;100.00
29461;BME280;16428;47.836;35.106;2023-02-18T17:16:09;100336.88;;;5.81;100.00
29461;BME280;16428;47.836;35.106;2023-02-18T17:18:45;100326.63;;;5.69;100.00
29461;BME280;16428;47.836;35.106;2023-02-18T17:21:31;100335.81;;;5.48;100.00
29461;BME280;16428;47.836;35.106;2023-02-18T17:24:30;100332.50;;;5.54;100.00
29461;BME280;16428;47.836;35.106;2023-02-18T17:27:38;100332.59;;;5.62;100.00
29461;BME280;16428;47.836;35.106;2023-02-18T17:30:40;100337.78;;;5.64;100.00
29461;BME280;16428;47.836;35.106;2023-02-18T17:33:26;100338.38;;;5.58;100.00
29461;BME280;16428;47.836;35.106;2023-02-18T17:35:57;100332.50;;;5.54;100.00
29461;BME280;16428;47.836;35.106;2023-02-18T17:38:33;100334.19;;;5.55;100.00
29461;BME280;16428;47.836;35.106;2023-02-18T17:41:52;100336.78;;;5.29;100.00
29461;BME280;16428;47.836;35.106;2023-02-18T17:44:49;100332.75;;;5.43;100.00
29461;BME280;16428;47.836;35.106;2023-02-18T17:47:51;100335.31;;;5.35;100.00
29461;BME280;16428;47.836;35.106;2023-02-18T17:50:55;100340.34;;;5.38;100.00
29461;BME280;16428;47.836;35.106;2023-02-18T17:56:57;100345.22;;;5.25;100.00
29461;BME280;16428;47.836;35.106;2023-02-18T17:59:40;100333.44;;;5.10;100.00
29461;BME280;16428;47.836;35.106;2023-02-18T18:02:39;100340.56;;;5.09;100.00
29461;BME280;16428;47.836;35.106;2023-02-18T18:05:51;100339.44;;;5.12;100.00
29461;BME280;16428;47.836;35.106;2023-02-18T18:09:26;100345.53;;;5.22;100.00